createdAt,value
2018-03-20T00:00:49.620Z,44.88
2018-03-20T00:01:54.996Z,44.96
2018-03-20T00:02:57.491Z,45.09
2018-03-20T00:04:00.015Z,45.08
2018-03-20T00:05:02.520Z,45.21
2018-03-20T00:06:05.012Z,45.24
2018-03-20T00:07:07.526Z,45.39
2018-03-20T00:08:10.033Z,45.33
2018-03-20T00:09:12.615Z,45.27
2018-03-20T00:10:15.116Z,45.59
2018-03-20T00:11:17.620Z,45.56
2018-03-20T00:12:20.117Z,45.49
2018-03-20T00:13:22.606Z,45.50
2018-03-20T00:14:25.128Z,45.56
2018-03-20T00:15:27.634Z,45.49
2018-03-20T00:16:30.122Z,45.49
2018-03-20T00:17:32.615Z,45.51
2018-03-20T00:18:35.102Z,45.58
2018-03-20T00:19:37.624Z,45.60
2018-03-20T00:20:40.147Z,45.58
2018-03-20T00:21:42.638Z,45.60
2018-03-20T00:22:45.193Z,45.75
2018-03-20T00:23:47.726Z,45.75
2018-03-20T00:24:50.234Z,45.67
2018-03-20T00:25:52.728Z,45.61
2018-03-20T00:26:55.218Z,45.76
2018-03-20T00:27:57.720Z,45.80
2018-03-20T00:29:00.234Z,45.76
2018-03-20T00:30:02.762Z,45.80
2018-03-20T00:31:05.282Z,45.81
2018-03-20T00:32:07.780Z,45.78
2018-03-20T00:33:10.291Z,45.74
2018-03-20T00:34:12.817Z,45.76
2018-03-20T00:35:15.357Z,45.88
2018-03-20T00:36:17.856Z,46.00
2018-03-20T00:37:20.350Z,46.23
2018-03-20T00:38:22.850Z,46.31
2018-03-20T00:39:25.399Z,46.27
2018-03-20T00:40:27.922Z,46.15
2018-03-20T00:41:30.556Z,46.07
2018-03-20T00:42:33.072Z,46.19
2018-03-20T00:43:35.586Z,46.09
2018-03-20T00:44:38.088Z,46.00
2018-03-20T00:45:40.615Z,45.96
2018-03-20T00:46:43.132Z,45.89
2018-03-20T00:47:45.671Z,45.84
2018-03-20T00:48:48.181Z,45.63
2018-03-20T00:49:50.791Z,45.67
2018-03-20T00:50:53.318Z,45.58
2018-03-20T00:51:55.819Z,45.51
2018-03-20T00:52:58.335Z,45.44
2018-03-20T00:54:00.826Z,45.40
2018-03-20T00:55:03.324Z,45.36
2018-03-20T00:56:05.867Z,45.31
2018-03-20T00:57:08.362Z,45.32
2018-03-20T00:58:10.874Z,45.39
2018-03-20T00:59:13.402Z,45.33
2018-03-20T01:00:15.912Z,45.43
2018-03-20T01:01:18.454Z,45.35
2018-03-20T01:02:20.958Z,45.45
2018-03-20T01:03:23.458Z,45.41
2018-03-20T01:04:25.946Z,45.47
2018-03-20T01:05:28.468Z,45.59
2018-03-20T01:06:31.016Z,45.62
2018-03-20T01:07:33.524Z,45.66
2018-03-20T01:08:36.020Z,45.68
2018-03-20T01:09:38.538Z,45.68
2018-03-20T01:10:41.077Z,45.69
2018-03-20T01:11:43.600Z,45.66
2018-03-20T01:12:46.105Z,45.76
2018-03-20T01:13:48.593Z,45.90
2018-03-20T01:14:51.092Z,46.07
2018-03-20T01:15:53.597Z,46.18
2018-03-20T01:16:56.117Z,46.22
2018-03-20T01:17:58.612Z,46.31
2018-03-20T01:19:01.099Z,46.66
2018-03-20T01:20:03.587Z,46.66
2018-03-20T01:21:06.084Z,46.55
2018-03-20T01:22:08.623Z,46.61
2018-03-20T01:23:11.123Z,46.59
2018-03-20T01:24:13.633Z,46.70
2018-03-20T01:25:16.148Z,46.70
2018-03-20T01:26:18.698Z,46.55
2018-03-20T01:27:21.240Z,46.56
2018-03-20T01:28:23.752Z,46.81
2018-03-20T01:29:26.263Z,46.77
2018-03-20T01:30:28.764Z,46.88
2018-03-20T01:31:31.261Z,46.69
2018-03-20T01:32:33.792Z,46.55
2018-03-20T01:33:36.282Z,46.44
2018-03-20T01:34:38.802Z,46.45
2018-03-20T01:35:41.304Z,46.44
2018-03-20T01:36:43.834Z,46.37
2018-03-20T01:37:46.373Z,46.32
2018-03-20T01:38:48.900Z,46.36
2018-03-20T01:39:51.403Z,46.32
2018-03-20T01:40:53.902Z,46.24
2018-03-20T01:41:56.402Z,46.32
2018-03-20T01:42:58.921Z,46.40
2018-03-20T01:44:01.406Z,46.19
2018-03-20T01:45:03.930Z,46.31
2018-03-20T01:46:06.446Z,46.21
2018-03-20T01:47:08.975Z,46.18
2018-03-20T01:48:11.511Z,46.15
2018-03-20T01:49:14.022Z,46.32
2018-03-20T01:50:16.511Z,46.23
2018-03-20T01:51:18.998Z,46.41
2018-03-20T01:52:25.413Z,46.51
2018-03-20T01:53:27.936Z,46.24
2018-03-20T01:54:30.451Z,46.34
2018-03-20T01:55:32.942Z,46.44
2018-03-20T01:56:35.470Z,46.50
2018-03-20T01:57:37.972Z,46.41
2018-03-20T01:58:40.505Z,46.15
2018-03-20T01:59:43.002Z,46.38
2018-03-20T02:00:45.500Z,46.29
2018-03-20T02:01:48.000Z,46.34
2018-03-20T02:02:50.499Z,46.30
2018-03-20T02:03:53.011Z,46.38
2018-03-20T02:04:55.526Z,46.48
2018-03-20T02:05:58.047Z,46.46
2018-03-20T02:07:00.553Z,46.53
2018-03-20T02:08:03.068Z,46.49
2018-03-20T02:09:05.601Z,46.61
2018-03-20T02:10:08.115Z,46.85
2018-03-20T02:11:10.640Z,47.28
2018-03-20T02:12:13.150Z,47.20
2018-03-20T02:13:15.661Z,47.07
2018-03-20T02:14:18.176Z,47.01
2018-03-20T02:15:20.702Z,47.01
2018-03-20T02:16:23.208Z,46.82
2018-03-20T02:17:25.838Z,46.74
2018-03-20T02:18:28.346Z,46.64
2018-03-20T02:19:30.868Z,46.62
2018-03-20T02:20:33.376Z,46.53
2018-03-20T02:21:35.878Z,46.55
2018-03-20T02:22:38.385Z,46.65
2018-03-20T02:23:40.893Z,46.58
2018-03-20T02:24:43.415Z,46.46
2018-03-20T02:25:45.910Z,46.57
2018-03-20T02:26:48.408Z,46.71
2018-03-20T02:27:50.910Z,46.92
2018-03-20T02:28:53.413Z,47.00
2018-03-20T02:29:55.945Z,47.08
2018-03-20T02:30:58.446Z,46.90
2018-03-20T02:32:00.954Z,47.13
2018-03-20T02:33:03.442Z,46.89
2018-03-20T02:34:05.958Z,47.36
2018-03-20T02:35:08.486Z,47.09
2018-03-20T02:36:11.007Z,47.30
2018-03-20T02:37:13.517Z,47.05
2018-03-20T02:38:16.040Z,47.03
2018-03-20T02:39:18.545Z,47.35
2018-03-20T02:40:21.094Z,47.06
2018-03-20T02:41:23.616Z,46.99
2018-03-20T02:42:26.144Z,46.97
2018-03-20T02:43:28.662Z,47.20
2018-03-20T02:44:31.175Z,47.52
2018-03-20T02:45:33.705Z,47.21
2018-03-20T02:46:36.210Z,47.10
2018-03-20T02:47:38.732Z,47.53
2018-03-20T02:48:41.262Z,47.78
2018-03-20T02:49:43.773Z,48.18
2018-03-20T02:50:46.306Z,47.81
2018-03-20T02:51:48.852Z,48.41
2018-03-20T02:52:51.358Z,47.70
2018-03-20T02:53:53.843Z,47.81
2018-03-20T02:54:56.341Z,47.79
2018-03-20T02:55:58.884Z,47.67
2018-03-20T02:57:01.385Z,47.66
2018-03-20T02:58:03.883Z,47.65
2018-03-20T02:59:06.393Z,47.66
2018-03-20T03:00:08.886Z,47.53
2018-03-20T03:01:11.414Z,47.35
2018-03-20T03:02:13.953Z,47.51
2018-03-20T03:03:16.444Z,47.47
2018-03-20T03:04:18.947Z,47.48
2018-03-20T03:05:21.457Z,47.21
2018-03-20T03:06:23.973Z,47.17
2018-03-20T03:07:26.485Z,47.06
2018-03-20T03:08:29.007Z,47.46
2018-03-20T03:09:31.491Z,47.27
2018-03-20T03:10:34.010Z,47.16
2018-03-20T03:11:36.550Z,47.44
2018-03-20T03:12:39.056Z,47.37
2018-03-20T03:13:41.565Z,47.47
2018-03-20T03:14:44.067Z,47.37
2018-03-20T03:15:46.568Z,47.31
2018-03-20T03:16:49.113Z,47.33
2018-03-20T03:17:51.607Z,47.37
2018-03-20T03:18:54.130Z,47.31
2018-03-20T03:19:56.638Z,47.38
2018-03-20T03:20:59.153Z,47.44
2018-03-20T03:22:01.698Z,47.40
2018-03-20T03:23:04.202Z,47.40
2018-03-20T03:24:06.686Z,47.75
2018-03-20T03:25:09.194Z,47.62
2018-03-20T03:26:11.697Z,47.51
2018-03-20T03:27:14.220Z,47.41
2018-03-20T03:28:16.730Z,48.12
2018-03-20T03:29:19.226Z,47.48
2018-03-20T03:30:21.738Z,47.68
2018-03-20T03:31:24.255Z,47.82
2018-03-20T03:32:26.784Z,48.02
2018-03-20T03:33:29.304Z,47.93
2018-03-20T03:34:31.815Z,47.94
2018-03-20T03:35:34.302Z,48.09
2018-03-20T03:36:36.804Z,48.10
2018-03-20T03:37:39.342Z,47.89
2018-03-20T03:38:41.854Z,47.88
2018-03-20T03:39:44.352Z,47.69
2018-03-20T03:40:46.866Z,47.77
2018-03-20T03:41:49.371Z,47.61
2018-03-20T03:42:51.915Z,47.55
2018-03-20T03:43:54.424Z,47.53
2018-03-20T03:44:56.984Z,47.56
2018-03-20T03:45:59.442Z,47.50
2018-03-20T03:47:01.935Z,47.42
2018-03-20T03:48:04.455Z,47.46
2018-03-20T03:49:06.950Z,47.46
2018-03-20T03:50:09.467Z,47.36
2018-03-20T03:51:11.973Z,47.50
2018-03-20T03:52:14.486Z,47.62
2018-03-20T03:53:16.995Z,47.73
2018-03-20T03:54:19.521Z,47.73
2018-03-20T03:55:22.036Z,47.77
2018-03-20T03:56:24.536Z,47.73
2018-03-20T03:57:27.028Z,47.83
2018-03-20T03:58:29.552Z,47.78
2018-03-20T03:59:32.053Z,47.87
2018-03-20T04:00:34.571Z,47.81
2018-03-20T04:01:37.086Z,47.82
2018-03-20T04:02:39.582Z,47.73
2018-03-20T04:03:42.115Z,47.64
2018-03-20T04:04:44.614Z,47.56
2018-03-20T04:05:47.126Z,47.59
2018-03-20T04:06:49.643Z,47.63
2018-03-20T04:07:52.159Z,47.76
2018-03-20T04:08:54.698Z,47.72
2018-03-20T04:09:57.200Z,47.89
2018-03-20T04:10:59.708Z,48.26
2018-03-20T04:12:02.219Z,48.24
2018-03-20T04:13:04.729Z,48.21
2018-03-20T04:14:07.258Z,48.13
2018-03-20T04:15:09.765Z,48.08
2018-03-20T04:16:12.370Z,48.01
2018-03-20T04:17:14.887Z,48.00
2018-03-20T04:18:17.397Z,47.91
2018-03-20T04:19:19.943Z,47.86
2018-03-20T04:20:22.448Z,47.89
2018-03-20T04:21:24.990Z,47.83
2018-03-20T04:22:27.488Z,47.68
2018-03-20T04:23:30.011Z,47.72
2018-03-20T04:24:32.580Z,48.04
2018-03-20T04:25:35.087Z,47.88
2018-03-20T04:26:37.598Z,47.95
2018-03-20T04:27:40.118Z,47.81
2018-03-20T04:28:42.621Z,48.06
2018-03-20T04:29:45.148Z,48.32
2018-03-20T04:30:47.657Z,48.21
2018-03-20T04:31:50.156Z,48.12
2018-03-20T04:32:52.685Z,48.14
2018-03-20T04:33:55.188Z,48.28
2018-03-20T04:34:57.716Z,48.26
2018-03-20T04:36:00.224Z,48.24
2018-03-20T04:37:02.726Z,48.27
2018-03-20T04:38:05.233Z,48.40
2018-03-20T04:39:07.733Z,48.56
2018-03-20T04:40:10.250Z,48.53
2018-03-20T04:41:12.738Z,48.84
2018-03-20T04:42:15.241Z,48.73
2018-03-20T04:43:17.753Z,48.86
2018-03-20T04:44:20.243Z,48.58
2018-03-20T04:45:22.772Z,48.37
2018-03-20T04:46:25.297Z,48.67
2018-03-20T04:47:27.788Z,48.87
2018-03-20T04:48:30.308Z,48.88
2018-03-20T04:49:32.842Z,48.82
2018-03-20T04:50:35.457Z,48.79
2018-03-20T04:51:37.977Z,48.78
2018-03-20T04:52:40.473Z,48.77
2018-03-20T04:53:43.008Z,48.59
2018-03-20T04:54:45.592Z,48.51
2018-03-20T04:55:48.116Z,48.49
2018-03-20T04:56:50.654Z,48.35
2018-03-20T04:57:53.160Z,48.39
2018-03-20T04:58:55.683Z,48.32
2018-03-20T04:59:58.197Z,48.28
2018-03-20T05:01:00.720Z,48.41
2018-03-20T05:02:03.210Z,48.57
2018-03-20T05:03:05.703Z,48.68
2018-03-20T05:04:08.243Z,48.94
2018-03-20T05:05:10.814Z,48.97
2018-03-20T05:06:13.317Z,49.07
2018-03-20T05:07:15.830Z,48.67
2018-03-20T05:08:18.483Z,48.83
2018-03-20T05:09:20.996Z,48.78
2018-03-20T05:10:23.486Z,48.83
2018-03-20T05:11:26.019Z,48.85
2018-03-20T05:12:28.525Z,49.00
2018-03-20T05:13:31.046Z,48.94
2018-03-20T05:14:33.552Z,49.19
2018-03-20T05:15:36.037Z,49.32
2018-03-20T05:16:38.569Z,48.63
2018-03-20T05:17:41.060Z,48.17
2018-03-20T05:18:44.959Z,48.81
2018-03-20T05:19:53.025Z,48.81
2018-03-20T05:22:56.406Z,49.00
2018-03-20T05:23:58.907Z,48.94
2018-03-20T05:25:01.418Z,48.86
2018-03-20T05:26:03.931Z,48.76
2018-03-20T05:27:06.463Z,48.69
2018-03-20T05:28:08.998Z,48.69
2018-03-20T05:29:11.504Z,48.57
2018-03-20T05:30:14.016Z,48.52
2018-03-20T05:31:16.537Z,48.44
2018-03-20T05:32:19.040Z,48.46
2018-03-20T05:33:21.579Z,48.35
2018-03-20T05:34:24.096Z,48.38
2018-03-20T05:35:26.619Z,48.35
2018-03-20T05:36:29.124Z,48.58
2018-03-20T05:37:31.623Z,48.38
2018-03-20T05:38:34.158Z,48.25
2018-03-20T05:39:36.651Z,48.50
2018-03-20T05:40:39.175Z,48.29
2018-03-20T05:41:41.700Z,48.26
2018-03-20T05:42:44.204Z,48.20
2018-03-20T05:43:46.740Z,48.07
2018-03-20T05:44:49.240Z,47.92
2018-03-20T05:45:51.736Z,47.67
2018-03-20T05:48:54.952Z,47.50
2018-03-20T05:50:02.946Z,47.37
2018-03-20T05:51:11.088Z,47.44
2018-03-20T05:52:13.594Z,47.52
2018-03-20T05:53:16.099Z,47.47
2018-03-20T05:54:18.642Z,47.35
2018-03-20T05:55:21.142Z,47.33
2018-03-20T05:56:23.649Z,47.37
2018-03-20T05:57:26.546Z,47.34
2018-03-20T05:58:29.117Z,47.48
2018-03-20T05:59:31.668Z,47.65
2018-03-20T06:00:34.197Z,47.81
2018-03-20T06:01:36.700Z,47.64
2018-03-20T06:02:39.220Z,47.77
2018-03-20T06:03:41.728Z,47.78
2018-03-20T06:04:44.235Z,48.14
2018-03-20T06:05:46.751Z,47.86
2018-03-20T06:06:49.276Z,48.04
2018-03-20T06:07:51.794Z,47.92
2018-03-20T06:08:54.315Z,48.21
2018-03-20T06:09:56.871Z,47.91
2018-03-20T06:10:59.373Z,48.19
2018-03-20T06:12:01.897Z,47.93
2018-03-20T06:13:04.414Z,48.03
2018-03-20T06:14:06.939Z,48.08
2018-03-20T06:15:09.536Z,48.10
2018-03-20T06:16:12.058Z,48.01
2018-03-20T06:17:14.576Z,47.41
2018-03-20T06:18:17.080Z,45.59
2018-03-20T06:19:19.593Z,43.95
2018-03-20T06:20:22.120Z,42.81
2018-03-20T06:21:24.610Z,43.04
2018-03-20T06:22:27.118Z,41.11
2018-03-20T06:23:29.625Z,40.23
2018-03-20T06:24:32.140Z,39.23
2018-03-20T06:25:34.669Z,37.95
2018-03-20T06:26:37.173Z,38.11
2018-03-20T06:27:39.677Z,38.19
2018-03-20T06:28:42.202Z,37.49
2018-03-20T06:29:44.706Z,37.59
2018-03-20T06:30:47.212Z,37.66
2018-03-20T06:31:49.715Z,37.19
2018-03-20T06:32:52.216Z,36.43
2018-03-20T06:33:54.736Z,36.31
2018-03-20T06:34:57.240Z,36.73
2018-03-20T06:35:59.775Z,36.10
2018-03-20T06:37:02.269Z,35.47
2018-03-20T06:38:04.763Z,34.90
2018-03-20T06:39:07.251Z,34.90
2018-03-20T06:40:09.734Z,34.83
2018-03-20T06:41:12.351Z,35.53
2018-03-20T06:42:14.874Z,35.13
2018-03-20T06:43:17.365Z,34.86
2018-03-20T06:44:19.873Z,34.56
2018-03-20T06:45:22.400Z,34.44
2018-03-20T06:46:24.915Z,34.29
2018-03-20T06:47:27.410Z,34.32
2018-03-20T06:48:29.914Z,34.62
2018-03-20T06:49:32.450Z,35.21
2018-03-20T06:50:34.985Z,35.15
2018-03-20T06:51:37.542Z,35.20
2018-03-20T06:52:40.081Z,35.50
2018-03-20T06:53:42.599Z,35.84
2018-03-20T06:54:45.090Z,35.73
2018-03-20T06:55:47.599Z,36.30
2018-03-20T06:56:50.124Z,36.48
2018-03-20T06:57:52.629Z,36.12
2018-03-20T06:58:55.176Z,35.85
2018-03-20T06:59:57.731Z,35.46
2018-03-20T07:01:00.267Z,35.05
2018-03-20T07:02:02.812Z,34.69
2018-03-20T07:03:05.327Z,34.45
2018-03-20T07:04:07.877Z,34.56
2018-03-20T07:05:10.423Z,34.73
2018-03-20T07:06:13.006Z,34.61
2018-03-20T07:07:15.543Z,34.25
2018-03-20T07:08:18.082Z,34.68
2018-03-20T07:09:20.725Z,34.25
2018-03-20T07:10:23.216Z,33.99
2018-03-20T07:11:25.710Z,33.96
2018-03-20T07:12:28.239Z,33.76
2018-03-20T07:13:30.753Z,33.74
2018-03-20T07:14:33.280Z,35.12
2018-03-20T07:15:35.792Z,35.77
2018-03-20T07:16:38.324Z,36.22
2018-03-20T07:17:40.874Z,36.13
2018-03-20T07:18:43.381Z,36.16
2018-03-20T07:19:45.893Z,36.26
2018-03-20T07:20:48.408Z,36.17
2018-03-20T07:21:50.894Z,35.91
2018-03-20T07:22:53.424Z,35.29
2018-03-20T07:23:56.152Z,34.78
2018-03-20T07:24:58.646Z,34.37
2018-03-20T07:26:01.175Z,34.34
2018-03-20T07:27:03.697Z,34.37
2018-03-20T07:28:06.221Z,34.31
2018-03-20T07:29:08.736Z,34.07
2018-03-20T07:30:11.251Z,34.41
2018-03-20T07:31:13.795Z,34.69
2018-03-20T07:32:16.293Z,34.54
2018-03-20T07:33:18.831Z,34.10
2018-03-20T07:34:21.355Z,33.78
2018-03-20T07:35:23.876Z,33.77
2018-03-20T07:36:26.368Z,34.09
2018-03-20T07:37:28.875Z,34.04
2018-03-20T07:38:31.405Z,33.98
2018-03-20T07:39:33.917Z,33.97
2018-03-20T07:40:36.443Z,33.98
2018-03-20T07:41:38.952Z,34.04
2018-03-20T07:42:41.476Z,34.21
2018-03-20T07:43:44.010Z,34.23
2018-03-20T07:44:46.573Z,34.23
2018-03-20T07:45:49.086Z,34.39
2018-03-20T07:46:51.582Z,34.46
2018-03-20T07:47:54.084Z,34.60
2018-03-20T07:48:56.630Z,34.96
2018-03-20T07:49:59.151Z,35.71
2018-03-20T07:51:01.681Z,35.76
2018-03-20T07:52:04.188Z,36.24
2018-03-20T07:53:06.711Z,36.06
2018-03-20T07:54:09.245Z,36.13
2018-03-20T07:55:11.824Z,36.26
2018-03-20T07:56:14.318Z,36.35
2018-03-20T07:57:16.818Z,36.35
2018-03-20T07:58:19.328Z,36.42
2018-03-20T07:59:21.852Z,36.56
2018-03-20T08:00:24.360Z,36.67
2018-03-20T08:01:26.863Z,36.70
2018-03-20T08:02:29.365Z,36.78
2018-03-20T08:03:31.939Z,37.02
2018-03-20T08:04:34.450Z,37.14
2018-03-20T08:05:36.956Z,37.24
2018-03-20T08:06:39.466Z,37.30
2018-03-20T08:07:41.992Z,37.42
2018-03-20T08:08:44.518Z,37.46
2018-03-20T08:09:47.042Z,37.54
2018-03-20T08:10:49.534Z,37.56
2018-03-20T08:11:52.039Z,37.61
2018-03-20T08:12:54.544Z,37.60
2018-03-20T08:13:57.044Z,37.64
2018-03-20T08:14:59.572Z,37.76
2018-03-20T08:16:02.062Z,37.93
2018-03-20T08:17:04.561Z,37.98
2018-03-20T08:18:07.060Z,38.08
2018-03-20T08:19:09.588Z,38.16
2018-03-20T08:20:12.144Z,38.27
2018-03-20T08:21:14.664Z,38.39
2018-03-20T08:22:17.163Z,38.48
2018-03-20T08:23:19.674Z,38.55
2018-03-20T08:24:22.180Z,38.71
2018-03-20T08:25:24.706Z,38.82
2018-03-20T08:26:27.223Z,38.87
2018-03-20T08:27:29.725Z,38.95
2018-03-20T08:28:32.310Z,39.00
2018-03-20T08:29:34.872Z,39.02
2018-03-20T08:30:37.406Z,39.05
2018-03-20T08:31:40.003Z,39.11
2018-03-20T08:32:42.516Z,39.12
2018-03-20T08:33:45.016Z,39.18
2018-03-20T08:34:47.539Z,39.25
2018-03-20T08:35:50.058Z,39.32
2018-03-20T08:36:52.552Z,39.37
2018-03-20T08:37:55.130Z,39.43
2018-03-20T08:38:57.651Z,39.48
2018-03-20T08:40:00.179Z,39.56
2018-03-20T08:41:02.749Z,39.61
2018-03-20T08:42:05.286Z,39.70
2018-03-20T08:43:07.789Z,39.79
2018-03-20T08:44:10.296Z,39.86
2018-03-20T08:45:12.869Z,39.89
2018-03-20T08:46:15.396Z,39.96
2018-03-20T08:47:18.052Z,40.00
2018-03-20T08:48:20.574Z,40.04
2018-03-20T08:49:23.093Z,40.08
2018-03-20T08:50:25.601Z,40.12
2018-03-20T08:51:28.132Z,40.15
2018-03-20T08:52:30.653Z,40.18
2018-03-20T08:53:33.244Z,40.22
2018-03-20T08:54:35.770Z,40.26
2018-03-20T08:55:38.270Z,40.30
2018-03-20T08:56:40.859Z,40.34
2018-03-20T08:57:43.362Z,40.36
2018-03-20T08:58:45.872Z,40.39
2018-03-20T08:59:48.481Z,40.40
2018-03-20T09:00:50.990Z,40.43
2018-03-20T09:01:53.520Z,40.48
2018-03-20T09:02:56.067Z,40.54
2018-03-20T09:03:58.596Z,40.61
2018-03-20T09:05:01.105Z,40.65
2018-03-20T09:06:03.668Z,40.71
2018-03-20T09:07:06.193Z,40.75
2018-03-20T09:08:08.937Z,40.79
2018-03-20T09:09:11.582Z,40.83
2018-03-20T09:10:14.099Z,40.88
2018-03-20T09:11:16.626Z,40.93
2018-03-20T09:12:19.199Z,40.97
2018-03-20T09:13:21.684Z,40.96
2018-03-20T09:14:24.202Z,40.83
2018-03-20T09:15:26.697Z,40.66
2018-03-20T09:16:29.211Z,40.38
2018-03-20T09:17:31.744Z,40.17
2018-03-20T09:18:34.274Z,39.53
2018-03-20T09:19:36.802Z,39.22
2018-03-20T09:20:40.093Z,39.58
2018-03-20T09:21:42.627Z,39.82
2018-03-20T09:22:45.178Z,39.85
2018-03-20T09:23:47.701Z,39.83
2018-03-20T09:24:50.228Z,39.74
2018-03-20T09:25:52.751Z,39.42
2018-03-20T09:26:55.268Z,39.27
2018-03-20T09:27:57.814Z,39.36
2018-03-20T09:29:00.439Z,39.39
2018-03-20T09:30:03.018Z,39.28
2018-03-20T09:31:05.532Z,39.22
2018-03-20T09:32:08.052Z,39.24
2018-03-20T09:33:10.596Z,39.28
2018-03-20T09:34:13.094Z,39.34
2018-03-20T09:35:15.639Z,39.33
2018-03-20T09:36:18.149Z,39.29
2018-03-20T09:37:20.664Z,39.29
2018-03-20T09:38:23.272Z,39.25
2018-03-20T09:39:25.786Z,39.29
2018-03-20T09:40:28.304Z,39.30
2018-03-20T09:41:30.802Z,39.35
2018-03-20T09:42:33.298Z,39.39
2018-03-20T09:43:35.876Z,39.54
2018-03-20T09:44:38.427Z,39.61
2018-03-20T09:45:40.985Z,39.63
2018-03-20T09:46:43.531Z,39.73
2018-03-20T09:47:46.026Z,39.85
2018-03-20T09:48:48.591Z,39.90
2018-03-20T09:49:51.094Z,39.94
2018-03-20T09:50:53.617Z,39.96
2018-03-20T09:51:56.119Z,40.02
2018-03-20T09:52:58.636Z,40.00
2018-03-20T09:54:01.178Z,40.00
2018-03-20T09:55:03.688Z,40.04
2018-03-20T09:56:06.187Z,40.10
2018-03-20T09:57:08.696Z,40.19
2018-03-20T09:58:11.295Z,40.21
2018-03-20T09:59:13.825Z,40.25
2018-03-20T10:00:16.383Z,40.26
2018-03-20T10:01:18.874Z,40.50
2018-03-20T10:02:21.386Z,40.32
2018-03-20T10:03:23.902Z,40.19
2018-03-20T10:04:26.451Z,40.22
2018-03-20T10:05:28.949Z,39.66
2018-03-20T10:06:31.464Z,39.54
2018-03-20T10:07:33.997Z,39.33
2018-03-20T10:08:36.505Z,39.23
2018-03-20T10:09:39.044Z,39.21
2018-03-20T10:10:41.550Z,39.15
2018-03-20T10:11:44.078Z,39.00
2018-03-20T10:12:46.573Z,39.04
2018-03-20T10:13:49.081Z,39.13
2018-03-20T10:14:51.615Z,39.11
2018-03-20T10:15:54.125Z,38.95
2018-03-20T10:16:56.659Z,38.79
2018-03-20T10:17:59.190Z,38.68
2018-03-20T10:19:01.706Z,38.65
2018-03-20T10:20:04.219Z,38.65
2018-03-20T10:21:06.742Z,38.67
2018-03-20T10:22:09.292Z,38.65
2018-03-20T10:23:11.800Z,38.64
2018-03-20T10:24:14.295Z,38.63
2018-03-20T10:25:16.824Z,38.62
2018-03-20T10:26:19.390Z,38.63
2018-03-20T10:27:21.889Z,38.66
2018-03-20T10:28:24.391Z,38.68
2018-03-20T10:29:26.902Z,38.73
2018-03-20T10:30:29.537Z,38.71
2018-03-20T10:31:32.171Z,38.76
2018-03-20T10:32:34.720Z,38.71
2018-03-20T10:33:37.276Z,38.62
2018-03-20T10:34:39.774Z,38.78
2018-03-20T10:35:42.334Z,38.90
2018-03-20T10:36:44.874Z,38.90
2018-03-20T10:37:47.407Z,38.76
2018-03-20T10:38:49.939Z,38.57
2018-03-20T10:39:52.481Z,38.35
2018-03-20T10:40:55.009Z,38.16
2018-03-20T10:41:57.531Z,37.92
2018-03-20T10:43:00.051Z,37.69
2018-03-20T10:44:02.562Z,37.46
2018-03-20T10:45:05.064Z,37.23
2018-03-20T10:46:07.584Z,36.99
2018-03-20T10:47:10.079Z,36.84
2018-03-20T10:48:12.591Z,36.77
2018-03-20T10:49:15.097Z,36.75
2018-03-20T10:50:17.639Z,36.70
2018-03-20T10:51:20.188Z,36.68
2018-03-20T10:52:22.702Z,36.65
2018-03-20T10:53:25.232Z,36.68
2018-03-20T10:54:27.787Z,36.57
2018-03-20T10:55:30.324Z,36.53
2018-03-20T10:56:32.896Z,36.50
2018-03-20T10:57:35.477Z,36.45
2018-03-20T10:58:38.013Z,36.32
2018-03-20T10:59:40.538Z,36.15
2018-03-20T11:00:48.598Z,36.06
2018-03-20T11:01:51.188Z,35.93
2018-03-20T11:02:53.704Z,35.88
2018-03-20T11:03:56.236Z,35.80
2018-03-20T11:04:58.792Z,35.79
2018-03-20T11:06:01.282Z,35.76
2018-03-20T11:07:04.026Z,35.77
2018-03-20T11:08:06.559Z,35.77
2018-03-20T11:09:09.323Z,35.78
2018-03-20T11:10:11.828Z,35.80
2018-03-20T11:11:14.508Z,35.84
2018-03-20T11:12:17.034Z,35.77
2018-03-20T11:13:19.537Z,35.73
2018-03-20T11:14:22.113Z,35.75
2018-03-20T11:15:24.704Z,35.63
2018-03-20T11:16:27.249Z,35.51
2018-03-20T11:17:29.869Z,35.39
2018-03-20T11:18:32.391Z,35.34
2018-03-20T11:19:35.090Z,35.16
2018-03-20T11:20:37.587Z,34.85
2018-03-20T11:21:40.096Z,35.08
2018-03-20T11:22:42.718Z,35.10
2018-03-20T11:23:45.233Z,35.17
2018-03-20T11:24:47.748Z,35.18
2018-03-20T11:25:50.244Z,35.12
2018-03-20T11:26:52.830Z,35.13
2018-03-20T11:27:55.373Z,35.14
2018-03-20T11:28:57.890Z,35.20
2018-03-20T11:30:00.440Z,35.23
2018-03-20T11:31:02.909Z,35.23
2018-03-20T11:32:05.500Z,35.15
2018-03-20T11:33:08.018Z,35.14
2018-03-20T11:34:10.521Z,35.13
2018-03-20T11:35:13.047Z,35.13
2018-03-20T11:36:15.543Z,35.08
2018-03-20T11:37:18.044Z,35.08
2018-03-20T11:38:20.552Z,35.04
2018-03-20T11:39:23.068Z,35.05
2018-03-20T11:40:25.555Z,35.09
2018-03-20T11:41:28.056Z,35.33
2018-03-20T11:42:30.588Z,35.19
2018-03-20T11:43:34.388Z,35.34
2018-03-20T11:44:36.959Z,35.37
2018-03-20T11:45:39.470Z,35.45
2018-03-20T11:46:41.990Z,35.47
2018-03-20T11:47:44.512Z,35.49
2018-03-20T11:48:48.843Z,35.44
2018-03-20T11:49:51.366Z,35.36
2018-03-20T11:50:53.860Z,35.33
2018-03-20T11:51:56.365Z,35.28
2018-03-20T11:52:58.866Z,35.23
2018-03-20T11:54:01.410Z,35.25
2018-03-20T11:55:03.930Z,35.28
2018-03-20T11:56:06.432Z,35.26
2018-03-20T11:57:08.955Z,35.32
2018-03-20T11:58:11.643Z,35.38
2018-03-20T11:59:14.155Z,35.39
2018-03-20T12:00:16.696Z,35.44
2018-03-20T12:01:19.194Z,35.49
2018-03-20T12:02:21.698Z,35.53
2018-03-20T12:03:24.219Z,35.55
2018-03-20T12:04:26.908Z,35.55
2018-03-20T12:05:29.401Z,35.48
2018-03-20T12:06:31.905Z,35.36
2018-03-20T12:07:34.514Z,35.34
2018-03-20T12:08:49.043Z,35.34
2018-03-20T12:09:51.579Z,35.27
2018-03-20T12:10:54.099Z,35.27
2018-03-20T12:11:56.615Z,35.29
2018-03-20T12:12:59.147Z,35.33
2018-03-20T12:14:01.845Z,35.33
2018-03-20T12:15:04.387Z,35.38
2018-03-20T12:16:07.029Z,35.43
2018-03-20T12:17:09.720Z,35.50
2018-03-20T12:18:12.506Z,35.55
2018-03-20T12:19:15.023Z,35.58
2018-03-20T12:20:17.569Z,35.58
2018-03-20T12:21:20.090Z,35.53
2018-03-20T12:22:22.578Z,35.49
2018-03-20T12:23:25.364Z,35.46
2018-03-20T12:24:27.863Z,35.42
2018-03-20T12:25:30.436Z,35.37
2018-03-20T12:26:32.945Z,35.22
2018-03-20T12:27:35.452Z,35.28
2018-03-20T12:28:37.950Z,35.35
2018-03-20T12:29:40.472Z,35.44
2018-03-20T12:30:43.313Z,35.53
2018-03-20T12:31:45.830Z,35.64
2018-03-20T12:32:48.347Z,35.83
2018-03-20T12:33:50.871Z,36.01
2018-03-20T12:34:53.393Z,36.05
2018-03-20T12:35:55.956Z,36.16
2018-03-20T12:36:58.477Z,36.26
2018-03-20T12:38:00.984Z,36.12
2018-03-20T12:39:03.637Z,36.06
2018-03-20T12:40:06.149Z,35.90
2018-03-20T12:41:08.697Z,35.78
2018-03-20T12:42:11.220Z,35.75
2018-03-20T12:43:13.739Z,35.76
2018-03-20T12:44:16.300Z,35.68
2018-03-20T12:45:18.813Z,35.61
2018-03-20T12:46:21.336Z,35.41
2018-03-20T12:47:23.886Z,34.54
2018-03-20T12:48:26.411Z,33.85
2018-03-20T12:49:28.920Z,33.65
2018-03-20T12:50:31.435Z,33.67
2018-03-20T12:51:33.960Z,33.73
2018-03-20T12:52:36.464Z,33.74
2018-03-20T12:53:39.004Z,33.88
2018-03-20T12:54:41.528Z,33.78
2018-03-20T12:55:44.037Z,33.76
2018-03-20T12:56:46.576Z,33.77
2018-03-20T12:57:49.152Z,33.79
2018-03-20T12:58:51.640Z,33.81
2018-03-20T12:59:54.129Z,33.79
2018-03-20T13:00:56.629Z,33.64
2018-03-20T13:01:59.162Z,33.69
2018-03-20T13:03:01.696Z,33.72
2018-03-20T13:04:04.183Z,33.83
2018-03-20T13:05:06.687Z,33.86
2018-03-20T13:06:09.212Z,33.80
2018-03-20T13:07:11.795Z,33.74
2018-03-20T13:08:14.342Z,33.73
2018-03-20T13:09:16.858Z,33.86
2018-03-20T13:10:19.358Z,33.89
2018-03-20T13:11:21.864Z,33.90
2018-03-20T13:12:24.440Z,33.82
2018-03-20T13:13:26.956Z,33.85
2018-03-20T13:14:29.447Z,33.77
2018-03-20T13:15:32.008Z,33.75
2018-03-20T13:16:34.532Z,33.76
2018-03-20T13:17:37.080Z,33.74
2018-03-20T13:18:39.584Z,33.77
2018-03-20T13:19:42.080Z,33.78
2018-03-20T13:20:44.588Z,33.74
2018-03-20T13:21:47.102Z,33.72
2018-03-20T13:22:49.638Z,33.84
2018-03-20T13:23:52.158Z,33.89
2018-03-20T13:24:54.666Z,33.86
2018-03-20T13:25:57.164Z,33.87
2018-03-20T13:26:59.676Z,33.82
2018-03-20T13:28:02.204Z,33.75
2018-03-20T13:29:04.728Z,33.81
2018-03-20T13:30:07.340Z,33.76